Time;durP1;ratioP1;P1;durP2;ratioP2;P2;SDS_P1;SDS_P2;PMS_P1;PMS_P2;Temp;Humidity;BMP_temperature;BMP_pressure;BME280_temperature;BME280_humidity;BME280_pressure;Samples;Min_cycle;Max_cycle;Signal;HPM_P1;HPM_P2
2022/09/19 00:02:25;;;;;;;;;;;;;;;23.93;nan;100939.06;5034529;28;1910;-30
2022/09/19 00:04:52;;;;;;;;;;;;;;;23.85;nan;100939.66;5034152;28;1303;-40
2022/09/19 00:07:19;;;;;;;;;;;;;;;23.89;nan;100937.63;5034426;28;891;-35
2022/09/19 00:09:45;;;;;;;;;;;;;;;23.95;nan;100934.50;5034017;28;1256;-32
2022/09/19 00:12:12;;;;;;;;;;;;;;;23.86;nan;100936.03;5034074;28;1065;-32
2022/09/19 00:14:39;;;;;;;;;;;;;;;23.89;nan;100934.97;5034049;28;1244;-31
2022/09/19 00:17:07;;;;;;;;;;;;;;;23.93;nan;100934.59;5034449;28;1114;-33
2022/09/19 00:19:35;;;;;;;;;;;;;;;23.87;nan;100934.22;5034070;28;1186;-33
2022/09/19 00:22:02;;;;;;;;;;;;;;;23.97;nan;100929.06;5034265;28;1989;-35
2022/09/19 00:24:49;;;;;;;;;;;;;;;23.94;nan;100927.47;5034474;28;1302;-32
2022/09/19 00:27:20;;;;;;;;;;;;;;;24.00;nan;100923.50;5034506;28;1029;-33
2022/09/19 00:29:47;;;;;;;;;;;;;;;24.00;nan;100924.34;5034288;28;1335;-31
2022/09/19 00:32:15;;;;;;;;;;;;;;;23.97;nan;100924.59;5065979;28;1131;-34
2022/09/19 00:34:43;;;;;;;;;;;;;;;23.97;nan;100923.72;5034209;28;1268;-34
2022/09/19 00:37:10;;;;;;;;;;;;;;;23.98;nan;100922.78;5033957;28;1022;-30
2022/09/19 00:39:37;;;;;;;;;;;;;;;24.02;nan;100919.75;5033838;28;1268;-36
2022/09/19 00:42:04;;;;;;;;;;;;;;;24.00;nan;100921.69;5032571;28;1971;-31
2022/09/19 00:44:31;;;;;;;;;;;;;;;24.00;nan;100924.34;5033504;28;1163;-35
2022/09/19 00:47:00;;;;;;;;;;;;;;;24.01;nan;100926.06;5033347;28;939;-33
2022/09/19 00:49:29;;;;;;;;;;;;;;;24.02;nan;100922.41;5033455;28;1561;-35
2022/09/19 00:52:00;;;;;;;;;;;;;;;24.02;nan;100919.75;5033954;28;1169;-35
2022/09/19 00:54:40;;;;;;;;;;;;;;;24.00;nan;100921.69;5032254;28;1325;-35
2022/09/19 00:57:09;;;;;;;;;;;;;;;24.00;nan;100919.03;5033954;28;1112;-31
2022/09/19 00:59:37;;;;;;;;;;;;;;;23.98;nan;100910.31;5033216;28;1288;-31
2022/09/19 01:02:05;;;;;;;;;;;;;;;23.94;nan;100907.03;5033363;28;1977;-33
2022/09/19 01:04:35;;;;;;;;;;;;;;;23.93;nan;100901.81;5033044;28;1193;-32
2022/09/19 01:07:14;;;;;;;;;;;;;;;23.94;nan;100892.91;5033691;28;943;-32
2022/09/19 01:09:56;;;;;;;;;;;;;;;23.95;nan;100891.94;5033824;28;1294;-29
2022/09/19 01:12:46;;;;;;;;;;;;;;;23.89;nan;100889.75;5033551;28;1121;-31
2022/09/19 01:15:20;;;;;;;;;;;;;;;23.78;nan;100877.25;5065317;28;1382;-35
2022/09/19 01:17:48;;;;;;;;;;;;;;;23.68;nan;100875.41;5033629;28;1029;-35
2022/09/19 01:20:30;;;;;;;;;;;;;;;23.68;nan;100870.09;5032931;28;1260;-35
2022/09/19 01:23:15;;;;;;;;;;;;;;;23.66;nan;100864.03;5033206;28;1914;-31
2022/09/19 01:26:01;;;;;;;;;;;;;;;23.75;nan;100871.31;5032970;28;1217;-25
2022/09/19 01:28:39;;;;;;;;;;;;;;;23.77;nan;100867.56;5033544;28;1175;-31
2022/09/19 01:31:17;;;;;;;;;;;;;;;23.78;nan;100863.94;5033282;28;1375;-34
2022/09/19 01:34:05;;;;;;;;;;;;;;;23.80;nan;100863.84;5033041;28;652;-31
2022/09/19 01:36:38;;;;;;;;;;;;;;;23.81;nan;100863.72;5032989;28;1201;-34
2022/09/19 01:39:07;;;;;;;;;;;;;;;23.85;nan;100849.22;5032782;28;769;-35
2022/09/19 01:41:34;;;;;;;;;;;;;;;23.79;nan;100857.66;5032834;28;1902;-34
2022/09/19 01:44:08;;;;;;;;;;;;;;;23.85;nan;100862.53;5032911;28;847;-33
2022/09/19 01:46:46;;;;;;;;;;;;;;;23.89;nan;100863.16;5032351;28;1319;-34
2022/09/19 01:49:13;;;;;;;;;;;;;;;23.91;nan;100855.88;5033130;28;1545;-36
2022/09/19 01:51:42;;;;;;;;;;;;;;;23.91;nan;100851.41;5041556;28;1213;-33
2022/09/19 01:54:09;;;;;;;;;;;;;;;23.82;nan;100843.28;5032812;28;866;-28
2022/09/19 01:56:41;;;;;;;;;;;;;;;23.79;nan;100835.53;5032893;28;1300;-33
2022/09/19 01:59:15;;;;;;;;;;;;;;;23.81;nan;100833.59;5032920;28;969;-34
2022/09/19 02:01:57;;;;;;;;;;;;;;;23.80;nan;100834.59;5032802;28;1983;-35
2022/09/19 02:04:23;;;;;;;;;;;;;;;23.77;nan;100835.63;5032611;28;743;-33
2022/09/19 02:07:07;;;;;;;;;;;;;;;23.75;nan;100828.75;5032273;28;1438;-34
2022/09/19 02:09:40;;;;;;;;;;;;;;;23.71;nan;100840.63;5032482;28;1382;-31
2022/09/19 02:12:07;;;;;;;;;;;;;;;23.69;nan;100834.53;5032787;28;1101;-34
2022/09/19 02:14:36;;;;;;;;;;;;;;;23.73;nan;100830.69;5032650;28;1221;-34
2022/09/19 02:17:09;;;;;;;;;;;;;;;23.75;nan;100834.91;5032371;28;1075;-34
2022/09/19 02:19:40;;;;;;;;;;;;;;;23.75;nan;100826.94;5032768;28;1394;-32
2022/09/19 02:22:12;;;;;;;;;;;;;;;23.77;nan;100832.16;5032655;28;1977;-34
2022/09/19 02:24:41;;;;;;;;;;;;;;;23.82;nan;100829.97;5032739;28;1442;-33
2022/09/19 02:27:20;;;;;;;;;;;;;;;23.83;nan;100827.19;5032725;28;1027;-33
2022/09/19 02:29:51;;;;;;;;;;;;;;;23.85;nan;100827.94;5032621;28;1291;-34
2022/09/19 02:32:19;;;;;;;;;;;;;;;23.87;nan;100825.16;5032679;28;1084;-32
2022/09/19 02:34:48;;;;;;;;;;;;;;;23.83;nan;100821.06;5036359;28;1205;-32
2022/09/19 02:37:21;;;;;;;;;;;;;;;23.83;nan;100815.72;5036301;28;1107;-31
2022/09/19 02:39:58;;;;;;;;;;;;;;;23.76;nan;100810.03;5035769;28;1279;-35
2022/09/19 02:42:30;;;;;;;;;;;;;;;23.81;nan;100812.31;5036171;28;1914;-35
2022/09/19 02:45:12;;;;;;;;;;;;;;;23.77;nan;100809.03;5036117;28;1285;-31
2022/09/19 02:47:45;;;;;;;;;;;;;;;23.77;nan;100810.88;5036071;28;983;-34
2022/09/19 02:50:18;;;;;;;;;;;;;;;23.77;nan;100805.56;5035868;28;1307;-34
2022/09/19 02:52:46;;;;;;;;;;;;;;;23.74;nan;100801.31;5035840;28;1111;-31
2022/09/19 02:55:15;;;;;;;;;;;;;;;23.75;nan;100802.16;5035822;28;1204;-34
2022/09/19 02:57:44;;;;;;;;;;;;;;;23.75;nan;100799.50;5035955;28;1106;-32
2022/09/19 03:00:12;;;;;;;;;;;;;;;23.73;nan;100798.78;5035817;28;1209;-24
2022/09/19 03:02:47;;;;;;;;;;;;;;;23.74;nan;100793.31;5035905;28;1997;-36
2022/09/19 03:05:17;;;;;;;;;;;;;;;23.66;nan;100789.56;5035371;28;1375;-34
2022/09/19 03:07:48;;;;;;;;;;;;;;;23.61;nan;100794.41;5035720;28;1026;-32
2022/09/19 03:10:19;;;;;;;;;;;;;;;23.64;nan;100789.69;5035599;28;1272;-28
2022/09/19 03:12:52;;;;;;;;;;;;;;;23.69;nan;100792.00;5035681;28;1035;-28
2022/09/19 03:15:26;;;;;;;;;;;;;;;23.72;nan;100791.75;5035564;28;1332;-31
2022/09/19 03:17:54;;;;;;;;;;;;;;;23.75;nan;100792.38;5035371;28;1099;-34
2022/09/19 03:20:24;;;;;;;;;;;;;;;23.76;nan;100788.75;5035485;28;1201;-33
2022/09/19 03:22:53;;;;;;;;;;;;;;;23.74;nan;100790.66;5035531;28;1910;-33
2022/09/19 03:25:20;;;;;;;;;;;;;;;23.75;nan;100789.72;5035166;28;1213;-34
2022/09/19 03:27:49;;;;;;;;;;;;;;;23.73;nan;100789.00;5035504;28;1118;-30
2022/09/19 03:30:16;;;;;;;;;;;;;;;23.74;nan;100795.16;5035094;28;1221;-32
2022/09/19 03:32:45;;;;;;;;;;;;;;;23.73;nan;100785.47;5035304;28;1058;-34
2022/09/19 03:35:14;;;;;;;;;;;;;;;23.73;nan;100788.13;5035299;28;1205;-33
2022/09/19 03:37:41;;;;;;;;;;;;;;;23.72;nan;100781.97;5035495;28;1002;-35
2022/09/19 03:40:08;;;;;;;;;;;;;;;23.70;nan;100781.25;5035058;28;1202;-34
2022/09/19 03:42:35;;;;;;;;;;;;;;;23.69;nan;100773.38;5050370;28;1910;-35
2022/09/19 03:45:02;;;;;;;;;;;;;;;23.66;nan;100786.91;5034613;28;1201;-34
2022/09/19 03:47:29;;;;;;;;;;;;;;;23.64;nan;100781.72;5035450;28;1476;-33
2022/09/19 03:49:57;;;;;;;;;;;;;;;23.70;nan;100781.25;5035060;28;1457;-35
2022/09/19 03:52:28;;;;;;;;;;;;;;;23.71;nan;100785.59;5035186;28;1135;-26
2022/09/19 03:54:57;;;;;;;;;;;;;;;23.71;nan;100784.75;5034866;28;1302;-31
2022/09/19 03:57:24;;;;;;;;;;;;;;;23.68;nan;100785.81;5035055;28;1021;-35
2022/09/19 03:59:51;;;;;;;;;;;;;;;23.72;nan;100783.78;5034139;28;1307;-34
2022/09/19 04:02:17;;;;;;;;;;;;;;;23.71;nan;100779.44;5034824;28;1993;-32
2022/09/19 04:04:44;;;;;;;;;;;;;;;23.70;nan;100781.25;5034581;28;1190;-35
2022/09/19 04:07:11;;;;;;;;;;;;;;;23.72;nan;100787.28;5034758;28;1099;-35
2022/09/19 04:09:37;;;;;;;;;;;;;;;23.71;nan;100782.09;5034516;28;1276;-33
2022/09/19 04:12:04;;;;;;;;;;;;;;;23.71;nan;100779.44;5034704;28;1079;-32
2022/09/19 04:14:32;;;;;;;;;;;;;;;23.69;nan;100782.19;5034341;28;1284;-31
2022/09/19 04:17:00;;;;;;;;;;;;;;;23.69;nan;100786.66;5034692;28;919;-34
2022/09/19 04:19:48;;;;;;;;;;;;;;;23.65;nan;100782.56;5034638;28;1294;-35
2022/09/19 04:22:18;;;;;;;;;;;;;;;23.67;nan;100783.28;5034457;28;1918;-33
2022/09/19 04:24:45;;;;;;;;;;;;;;;23.70;nan;100785.72;5034525;28;1329;-32
2022/09/19 04:27:13;;;;;;;;;;;;;;;23.70;nan;100783.91;5034393;28;1102;-27
2022/09/19 04:29:43;;;;;;;;;;;;;;;23.69;nan;100784.00;5034451;28;1256;-31
2022/09/19 04:32:09;;;;;;;;;;;;;;;23.66;nan;100785.09;5034312;28;1114;-34
2022/09/19 04:34:36;;;;;;;;;;;;;;;23.66;nan;100784.25;5034123;28;1201;-32
2022/09/19 04:37:06;;;;;;;;;;;;;;;23.63;nan;100781.81;5034073;28;1021;-32
2022/09/19 04:39:32;;;;;;;;;;;;;;;23.63;nan;100776.50;5033769;28;1277;-30
2022/09/19 04:42:01;;;;;;;;;;;;;;;23.61;nan;100789.09;5033984;28;896;-29
2022/09/19 04:44:29;;;;;;;;;;;;;;;23.59;nan;100783.88;5033785;28;1981;-31
2022/09/19 04:46:56;;;;;;;;;;;;;;;23.61;nan;100789.94;5033807;28;926;-34
2022/09/19 04:49:23;;;;;;;;;;;;;;;23.60;nan;100793.53;5033757;28;1077;-35
2022/09/19 04:51:53;;;;;;;;;;;;;;;23.59;nan;100788.38;5033953;28;1304;-35
2022/09/19 04:54:20;;;;;;;;;;;;;;;23.61;nan;100792.59;5033907;28;914;-31
2022/09/19 04:56:47;;;;;;;;;;;;;;;23.57;nan;100792.94;5033112;28;1276;-33
2022/09/19 04:59:14;;;;;;;;;;;;;;;23.57;nan;100793.78;5033299;28;703;-34
2022/09/19 05:01:44;;;;;;;;;;;;;;;23.58;nan;100795.50;5033179;28;1192;-33
2022/09/19 05:04:14;;;;;;;;;;;;;;;23.60;nan;100793.53;5033388;28;1914;-36
2022/09/19 05:06:41;;;;;;;;;;;;;;;23.57;nan;100793.78;5048772;28;1331;-34
2022/09/19 05:09:08;;;;;;;;;;;;;;;23.56;nan;100789.41;5033549;28;1279;-32
2022/09/19 05:11:37;;;;;;;;;;;;;;;23.60;nan;100792.69;5033306;28;1217;-31
2022/09/19 05:14:04;;;;;;;;;;;;;;;23.53;nan;100794.97;5033195;28;945;-34
2022/09/19 05:16:30;;;;;;;;;;;;;;;23.55;nan;100800.19;5063348;28;1228;-35
2022/09/19 05:18:57;;;;;;;;;;;;;;;23.51;nan;100799.56;5033051;28;745;-35
2022/09/19 05:21:24;;;;;;;;;;;;;;;23.50;nan;100786.41;5033175;28;1198;-34
2022/09/19 05:23:51;;;;;;;;;;;;;;;23.50;nan;100791.72;5032792;28;1906;-32
2022/09/19 05:26:18;;;;;;;;;;;;;;;23.50;nan;100787.22;5033468;28;1384;-31
2022/09/19 05:28:45;;;;;;;;;;;;;;;23.53;nan;100792.31;5047070;28;1375;-35
2022/09/19 05:31:12;;;;;;;;;;;;;;;23.55;nan;100797.53;5052533;28;1279;-31
2022/09/19 05:33:39;;;;;;;;;;;;;;;23.55;nan;100806.34;5053267;28;1603;-34
2022/09/19 05:36:06;;;;;;;;;;;;;;;23.46;nan;100806.19;5052533;28;1217;-31
2022/09/19 05:38:33;;;;;;;;;;;;;;;23.46;nan;100803.53;5053189;28;1182;-32
2022/09/19 05:41:01;;;;;;;;;;;;;;;23.48;nan;100798.94;5052681;28;1289;-31
2022/09/19 05:43:28;;;;;;;;;;;;;;;23.51;nan;100812.00;5052973;28;1906;-31
2022/09/19 05:45:56;;;;;;;;;;;;;;;23.47;nan;100807.91;5052912;28;1260;-30
2022/09/19 05:48:24;;;;;;;;;;;;;;;23.45;nan;100804.50;5052671;28;1448;-35
2022/09/19 05:50:51;;;;;;;;;;;;;;;23.33;nan;100807.09;5052760;28;1339;-31
2022/09/19 05:56:05;;;;;;;;;;;;;;;23.34;nan;100810.59;5052111;28;1284;-32
2022/09/19 05:58:35;;;;;;;;;;;;;;;23.35;nan;100813.13;5051684;28;1775;-30
2022/09/19 06:01:03;;;;;;;;;;;;;;;23.37;nan;100818.34;5045871;28;1692;-27
2022/09/19 06:03:31;;;;;;;;;;;;;;;23.31;nan;100819.66;5050452;28;1914;-29
2022/09/19 06:05:57;;;;;;;;;;;;;;;23.27;nan;100826.16;5052308;28;1339;-30
2022/09/19 06:08:24;;;;;;;;;;;;;;;22.97;nan;100839.06;5056007;28;1249;-27
2022/09/19 06:10:51;;;;;;;;;;;;;;;23.06;nan;100841.03;5039595;28;1410;-31
2022/09/19 06:14:13;;;;;;;;;;;;;;;22.88;nan;100839.72;5039523;28;1061;-28
2022/09/19 06:16:16;;;;;;;;;;;;;;;23.26;nan;100840.41;5044075;28;1818;-24
2022/09/19 06:18:43;;;;;;;;;;;;;;;23.76;nan;100831.31;5053819;28;1161;-30
2022/09/19 06:21:12;;;;;;;;;;;;;;;23.97;nan;100839.44;5054871;28;1280;-34
2022/09/19 06:23:39;;;;;;;;;;;;;;;24.09;nan;100842.97;5071406;28;1982;-32
2022/09/19 06:26:06;;;;;;;;;;;;;;;24.15;nan;100843.38;5059560;28;1631;-28
2022/09/19 06:28:33;;;;;;;;;;;;;;;24.19;nan;100842.16;5040406;28;1224;-33
2022/09/19 06:31:02;;;;;;;;;;;;;;;24.24;nan;100839.13;5055172;28;1268;-28
2022/09/19 06:33:31;;;;;;;;;;;;;;;24.31;nan;100843.03;5055138;28;1144;-26
2022/09/19 06:35:59;;;;;;;;;;;;;;;24.32;nan;100842.88;5053866;28;1319;-30
2022/09/19 06:38:27;;;;;;;;;;;;;;;24.34;nan;100848.97;5053745;28;1160;-29
2022/09/19 06:40:53;;;;;;;;;;;;;;;24.36;nan;100844.34;5054807;28;1232;-29
2022/09/19 06:43:22;;;;;;;;;;;;;;;24.38;nan;100839.75;5069960;28;1914;-28
2022/09/19 06:45:49;;;;;;;;;;;;;;;24.39;nan;100846.75;5053906;28;1280;-29
2022/09/19 06:48:16;;;;;;;;;;;;;;;24.34;nan;100846.28;5047703;28;1537;-30
2022/09/19 06:50:47;;;;;;;;;;;;;;;24.31;nan;100849.19;5044460;28;1410;-30
2022/09/19 06:53:14;;;;;;;;;;;;;;;24.32;nan;100848.22;5034369;28;1038;-30
2022/09/19 06:55:41;;;;;;;;;;;;;;;24.17;nan;100852.06;5035456;28;1300;-29
2022/09/19 06:58:12;;;;;;;;;;;;;;;24.23;nan;100856.91;5036025;28;1110;-27
2022/09/19 07:00:40;;;;;;;;;;;;;;;24.29;nan;100860.91;5035607;28;1223;-27
2022/09/19 07:03:11;;;;;;;;;;;;;;;24.31;nan;100862.50;5049685;28;1963;-28
2022/09/19 07:05:39;;;;;;;;;;;;;;;24.35;nan;100863.09;5055191;28;1240;-28
2022/09/19 07:08:06;;;;;;;;;;;;;;;24.21;nan;100869.50;5055777;28;1032;-30
2022/09/19 07:10:35;;;;;;;;;;;;;;;24.20;nan;100878.44;5055556;28;1217;-35
2022/09/19 07:13:02;;;;;;;;;;;;;;;24.22;nan;100873.03;5055309;28;1039;-27
2022/09/19 07:15:32;;;;;;;;;;;;;;;24.25;nan;100870.13;5055309;28;1320;-28
2022/09/19 07:17:58;;;;;;;;;;;;;;;24.24;nan;100874.59;5053355;28;1561;-30
2022/09/19 07:20:26;;;;;;;;;;;;;;;24.21;nan;100881.97;5043135;28;1301;-28
2022/09/19 07:23:03;;;;;;;;;;;;;;;24.16;nan;100879.66;5086352;28;1985;-30
2022/09/19 07:25:35;;;;;;;;;;;;;;;24.15;nan;100885.94;5054868;28;1261;-28
2022/09/19 07:28:03;;;;;;;;;;;;;;;24.12;nan;100882.69;5055216;28;1139;-28
2022/09/19 07:30:31;;;;;;;;;;;;;;;24.10;nan;100881.91;5054694;28;1256;-29
2022/09/19 07:32:59;;;;;;;;;;;;;;;24.07;nan;100888.34;5054452;28;906;-26
2022/09/19 07:35:30;;;;;;;;;;;;;;;24.06;nan;100891.09;5054433;28;1287;-27
2022/09/19 07:38:01;;;;;;;;;;;;;;;24.05;nan;100900.03;5054936;28;1105;-32
2022/09/19 07:40:28;;;;;;;;;;;;;;;24.09;nan;100897.03;5054492;28;1260;-28
2022/09/19 07:43:01;;;;;;;;;;;;;;;24.07;nan;100893.66;5054064;28;1547;-30
2022/09/19 07:45:29;;;;;;;;;;;;;;;24.05;nan;100895.56;5054734;28;1367;-28
2022/09/19 07:48:00;;;;;;;;;;;;;;;24.07;nan;100898.13;5053016;28;1510;-27
2022/09/19 07:50:27;;;;;;;;;;;;;;;24.08;nan;100895.34;5043216;28;1695;-26
2022/09/19 07:52:57;;;;;;;;;;;;;;;24.14;nan;100896.69;5047585;28;1072;-29
2022/09/19 07:55:25;;;;;;;;;;;;;;;24.16;nan;100900.13;5053770;28;1557;-29
2022/09/19 07:57:53;;;;;;;;;;;;;;;24.15;nan;100901.06;5040131;28;1443;-31
2022/09/19 08:00:20;;;;;;;;;;;;;;;24.19;nan;100898.06;5053485;28;1306;-26
2022/09/19 08:02:57;;;;;;;;;;;;;;;24.18;nan;100909.66;5053120;28;1434;-30
2022/09/19 08:05:24;;;;;;;;;;;;;;;23.82;nan;100910.63;5046235;28;1968;-29
2022/09/19 08:07:52;;;;;;;;;;;;;;;23.88;nan;100914.66;5054616;28;933;-28
2022/09/19 08:10:18;;;;;;;;;;;;;;;23.91;nan;100912.59;5054149;28;1282;-30
2022/09/19 08:12:45;;;;;;;;;;;;;;;23.91;nan;100919.72;5054020;28;1040;-28
2022/09/19 08:15:15;;;;;;;;;;;;;;;24.05;nan;100910.69;5064816;28;1576;-29
2022/09/19 08:17:42;;;;;;;;;;;;;;;24.23;nan;100914.63;5054784;28;918;-30
2022/09/19 08:20:09;;;;;;;;;;;;;;;24.35;nan;100919.84;5038397;28;1655;-32
2022/09/19 08:22:36;;;;;;;;;;;;;;;24.42;nan;100921.06;5031001;28;1421;-32
2022/09/19 08:25:03;;;;;;;;;;;;;;;24.48;nan;100925.06;5047307;28;1914;-29
2022/09/19 08:27:30;;;;;;;;;;;;;;;24.51;nan;100927.50;5032597;28;1122;-29
2022/09/19 08:29:58;;;;;;;;;;;;;;;24.54;nan;100934.38;5037388;28;1248;-30
2022/09/19 08:32:26;;;;;;;;;;;;;;;24.57;nan;100936.81;5051809;28;1111;-32
2022/09/19 08:34:53;;;;;;;;;;;;;;;24.59;nan;100941.06;5051954;28;1177;-29
2022/09/19 08:37:20;;;;;;;;;;;;;;;24.60;nan;100945.41;5053666;28;905;-29
2022/09/19 08:42:44;;;;;;;;;;;;;;;24.64;nan;100946.88;5054090;28;1028;-32
2022/09/19 08:45:19;;;;;;;;;;;;;;;24.64;nan;100948.69;5053485;28;1914;-32
2022/09/19 08:47:47;;;;;;;;;;;;;;;24.65;nan;100945.91;5053942;28;1022;-32
2022/09/19 08:50:29;;;;;;;;;;;;;;;24.66;nan;100939.59;5053381;28;1311;-34
2022/09/19 08:52:58;;;;;;;;;;;;;;;24.67;nan;100945.78;5053700;28;1081;-35
2022/09/19 08:55:27;;;;;;;;;;;;;;;24.67;nan;100943.13;5053513;28;1217;-32
2022/09/19 08:57:55;;;;;;;;;;;;;;;24.68;nan;100936.84;5053697;28;1598;-27
2022/09/19 09:00:23;;;;;;;;;;;;;;;24.69;nan;100943.84;5053106;28;1339;-29
2022/09/19 09:02:58;;;;;;;;;;;;;;;24.63;nan;100947.84;5043714;28;1238;-30
2022/09/19 09:05:45;;;;;;;;;;;;;;;24.58;nan;100950.03;5043741;28;1915;-31
2022/09/19 09:08:12;;;;;;;;;;;;;;;24.53;nan;100949.50;5048773;28;1469;-32
2022/09/19 09:10:58;;;;;;;;;;;;;;;24.43;nan;100944.09;5053213;28;1288;-32
2022/09/19 09:13:37;;;;;;;;;;;;;;;24.54;nan;100945.03;5053203;28;1263;-29
2022/09/19 09:16:42;;;;;;;;;;;;;;;24.64;nan;100956.69;5051547;28;2165;-28
2022/09/19 09:19:18;;;;;;;;;;;;;;;24.69;nan;100957.16;5052844;28;751;-33
2022/09/19 09:21:59;;;;;;;;;;;;;;;24.73;nan;100955.94;5052333;28;1192;-36
2022/09/19 09:24:35;;;;;;;;;;;;;;;24.73;nan;100956.81;5052463;28;1899;-30
2022/09/19 09:27:05;;;;;;;;;;;;;;;24.76;nan;100955.72;5052397;28;1075;-33
2022/09/19 09:29:43;;;;;;;;;;;;;;;24.79;nan;100968.78;5051008;28;1390;-32
2022/09/19 09:32:20;;;;;;;;;;;;;;;24.79;nan;100960.81;5052358;28;1114;-31
2022/09/19 09:34:56;;;;;;;;;;;;;;;24.80;nan;100962.50;5052631;28;1281;-31
2022/09/19 09:37:43;;;;;;;;;;;;;;;24.82;nan;100960.59;5052747;28;1449;-29
2022/09/19 09:40:13;;;;;;;;;;;;;;;24.85;nan;100966.53;5054983;28;1494;-30
2022/09/19 09:42:46;;;;;;;;;;;;;;;24.86;nan;100962.06;5052364;28;894;-32
2022/09/19 09:45:22;;;;;;;;;;;;;;;24.86;nan;100960.25;5052092;28;1898;-31
2022/09/19 09:48:07;;;;;;;;;;;;;;;24.88;nan;100962.75;5053159;28;1020;-35
2022/09/19 09:50:37;;;;;;;;;;;;;;;24.89;nan;100960.00;5052221;28;1308;-32
2022/09/19 09:53:12;;;;;;;;;;;;;;;24.90;nan;100960.81;5043583;28;1560;-30
2022/09/19 09:58:41;;;;;;;;;;;;;;;24.92;nan;100956.22;5053059;28;1262;-34
2022/09/19 10:04:03;;;;;;;;;;;;;;;24.93;nan;100963.25;5052232;28;1903;-28
2022/09/19 10:06:43;;;;;;;;;;;;;;;24.95;nan;100956.00;5084000;28;1347;-29
2022/09/19 10:09:16;;;;;;;;;;;;;;;24.96;nan;100957.66;5083901;28;688;-34
2022/09/19 10:11:46;;;;;;;;;;;;;;;24.96;nan;100957.66;5051536;28;1434;-29
2022/09/19 10:14:35;;;;;;;;;;;;;;;24.98;nan;100964.59;5052600;28;1878;-30
2022/09/19 10:17:03;;;;;;;;;;;;;;;24.98;nan;100959.25;5051948;28;1087;-32
2022/09/19 10:19:33;;;;;;;;;;;;;;;24.99;nan;100960.09;5052039;28;1303;-30
2022/09/19 10:22:00;;;;;;;;;;;;;;;25.01;nan;100950.16;5050745;28;1393;-31
2022/09/19 10:24:50;;;;;;;;;;;;;;;25.00;nan;100951.97;5052041;28;1915;-32
2022/09/19 10:27:24;;;;;;;;;;;;;;;25.02;nan;100949.19;5052348;28;1123;-30
2022/09/19 10:29:59;;;;;;;;;;;;;;;25.02;nan;100946.50;5050690;28;1292;-31
2022/09/19 10:32:27;;;;;;;;;;;;;;;25.03;nan;100950.88;5051865;28;1114;-34
2022/09/19 10:34:54;;;;;;;;;;;;;;;25.05;nan;100946.28;5051797;28;1209;-34
2022/09/19 10:37:26;;;;;;;;;;;;;;;25.05;nan;100948.94;5050025;28;1414;-34
2022/09/19 10:39:58;;;;;;;;;;;;;;;25.06;nan;100939.13;5042939;28;1355;-31
2022/09/19 10:42:30;;;;;;;;;;;;;;;25.06;nan;100953.31;5052184;28;1143;-34
2022/09/19 10:44:59;;;;;;;;;;;;;;;25.08;nan;100950.53;5050334;28;1910;-33
2022/09/19 10:47:28;;;;;;;;;;;;;;;25.08;nan;100948.69;5051950;28;1114;-33
2022/09/19 10:49:59;;;;;;;;;;;;;;;25.08;nan;100951.34;5051128;28;1295;-31
2022/09/19 10:52:30;;;;;;;;;;;;;;;25.09;nan;100950.41;5051641;28;1069;-33
2022/09/19 10:55:20;;;;;;;;;;;;;;;25.07;nan;100947.00;5054848;28;1374;-39
2022/09/19 10:58:01;;;;;;;;;;;;;;;25.08;nan;100942.53;5054439;28;1188;-29
2022/09/19 11:00:30;;;;;;;;;;;;;;;25.08;nan;100945.19;5053928;28;1399;-29
2022/09/19 11:03:15;;;;;;;;;;;;;;;25.06;nan;100947.97;5055729;28;1194;-31
2022/09/19 11:05:42;;;;;;;;;;;;;;;25.07;nan;100949.69;5055072;28;1982;-28
2022/09/19 11:08:23;;;;;;;;;;;;;;;25.08;nan;100953.19;5055591;28;1136;-30
2022/09/19 11:10:50;;;;;;;;;;;;;;;25.07;nan;100947.00;5087041;28;1192;-35
2022/09/19 11:13:20;;;;;;;;;;;;;;;25.07;nan;100944.34;5055782;28;1007;-33
2022/09/19 11:15:55;;;;;;;;;;;;;;;25.08;nan;100942.53;5055308;28;1360;-30
2022/09/19 11:18:49;;;;;;;;;;;;;;;25.09;nan;100944.22;5049325;28;1588;-36
2022/09/19 11:21:32;;;;;;;;;;;;;;;25.09;nan;100942.41;5040842;28;1330;-36
2022/09/19 11:24:14;;;;;;;;;;;;;;;25.12;nan;100941.31;5048212;28;1975;-31
2022/09/19 11:26:59;;;;;;;;;;;;;;;25.13;nan;100932.34;5054254;28;1292;-30
2022/09/19 11:29:38;;;;;;;;;;;;;;;25.15;nan;100941.06;5054818;28;1079;-32
2022/09/19 11:32:11;;;;;;;;;;;;;;;25.16;nan;100932.09;5054127;28;1472;-34
2022/09/19 11:35:07;;;;;;;;;;;;;;;25.17;nan;100937.28;5036460;28;1493;-38
2022/09/19 11:37:53;;;;;;;;;;;;;;;25.19;nan;100942.50;5034844;28;999;-33
2022/09/19 11:40:23;;;;;;;;;;;;;;;25.21;nan;100945.88;5039160;28;1367;-34
2022/09/19 11:42:54;;;;;;;;;;;;;;;25.21;nan;100945.88;5054121;28;1056;-38
2022/09/19 11:45:22;;;;;;;;;;;;;;;25.23;nan;100939.44;5052160;28;1971;-36
2022/09/19 11:48:05;;;;;;;;;;;;;;;25.26;nan;100935.72;5054568;28;953;-31
2022/09/19 11:50:39;;;;;;;;;;;;;;;25.28;nan;100942.63;5050096;28;1601;-37
2022/09/19 11:53:13;;;;;;;;;;;;;;;25.30;nan;100940.66;5049938;28;1059;-35
2022/09/19 11:55:59;;;;;;;;;;;;;;;25.31;nan;100945.03;5050486;28;1382;-35
2022/09/19 11:58:32;;;;;;;;;;;;;;;25.33;nan;100939.56;5051596;28;1194;-34
2022/09/19 12:01:12;;;;;;;;;;;;;;;25.34;nan;100931.44;5051010;28;1221;-36
2022/09/19 12:03:52;;;;;;;;;;;;;;;25.34;nan;100934.13;5050024;28;1044;-37
2022/09/19 12:06:43;;;;;;;;;;;;;;;25.35;nan;100933.13;5049377;28;1910;-34
2022/09/19 12:09:19;;;;;;;;;;;;;;;25.35;nan;100924.31;5045315;28;1217;-35
2022/09/19 12:11:55;;;;;;;;;;;;;;;25.35;nan;100930.44;5042143;28;1334;-37
2022/09/19 12:14:26;;;;;;;;;;;;;;;25.35;nan;100927.78;5077143;28;1102;-29
2022/09/19 12:16:55;;;;;;;;;;;;;;;25.35;nan;100917.13;5048381;28;1122;-39
2022/09/19 12:19:33;;;;;;;;;;;;;;;25.36;nan;100928.63;5048926;28;1027;-35
2022/09/19 12:22:06;;;;;;;;;;;;;;;25.36;nan;100921.50;5046863;28;1373;-34
2022/09/19 12:24:54;;;;;;;;;;;;;;;25.35;nan;100919.78;5049743;28;1906;-38
2022/09/19 12:27:40;;;;;;;;;;;;;;;25.37;nan;100923.19;5049850;28;1056;-32
2022/09/19 12:30:09;;;;;;;;;;;;;;;25.38;nan;100911.53;5074321;28;1283;-38
2022/09/19 12:32:42;;;;;;;;;;;;;;;25.38;nan;100916.88;5045986;28;1055;-33
2022/09/19 12:35:13;;;;;;;;;;;;;;;25.41;nan;100913.13;5048488;28;1324;-34
2022/09/19 12:37:54;;;;;;;;;;;;;;;25.47;nan;100915.28;5048297;28;1113;-36
2022/09/19 12:40:28;;;;;;;;;;;;;;;25.50;nan;100915.88;5049317;28;1260;-33
2022/09/19 12:43:03;;;;;;;;;;;;;;;25.53;nan;100910.31;5049673;28;1151;-34
2022/09/19 12:45:35;;;;;;;;;;;;;;;25.56;nan;100916.38;5046219;28;1985;-32
2022/09/19 12:48:23;;;;;;;;;;;;;;;25.56;nan;100905.72;5043177;28;937;-30
2022/09/19 12:50:55;;;;;;;;;;;;;;;25.57;nan;100897.56;5047611;28;1581;-29
2022/09/19 12:53:22;;;;;;;;;;;;;;;25.58;nan;100898.41;5072178;28;1307;-34
2022/09/19 12:55:58;;;;;;;;;;;;;;;25.58;nan;100895.75;5063833;28;1256;-30
2022/09/19 12:58:32;;;;;;;;;;;;;;;25.59;nan;100897.44;5068344;28;914;-30
2022/09/19 13:01:12;;;;;;;;;;;;;;;25.58;nan;100896.59;5073711;28;1304;-32
2022/09/19 13:03:42;;;;;;;;;;;;;;;25.59;nan;100890.31;5037581;28;973;-35
2022/09/19 13:06:18;;;;;;;;;;;;;;;25.59;nan;100892.97;5044206;28;2013;-38
2022/09/19 13:09:03;;;;;;;;;;;;;;;25.59;nan;100886.78;5044591;28;1628;-33
2022/09/19 13:11:36;;;;;;;;;;;;;;;25.58;nan;100885.06;5039184;28;1169;-38
2022/09/19 13:14:12;;;;;;;;;;;;;;;25.61;nan;100887.50;5040942;28;1248;-30
2022/09/19 13:24:47;;;;;;;;;;;;;;;25.65;nan;100875.59;5036919;28;2056;-39
2022/09/19 13:27:20;;;;;;;;;;;;;;;25.66;nan;100871.94;5069776;28;1217;-35
2022/09/19 13:29:49;;;;;;;;;;;;;;;25.66;nan;100874.59;5042733;28;1272;-32
2022/09/19 13:32:27;;;;;;;;;;;;;;;25.65;nan;100868.44;5045385;28;1035;-39
2022/09/19 13:35:00;;;;;;;;;;;;;;;25.65;nan;100859.59;5038438;28;1438;-39
2022/09/19 13:37:35;;;;;;;;;;;;;;;25.64;nan;100863.22;5035108;28;1284;-29
2022/09/19 13:40:22;;;;;;;;;;;;;;;25.64;nan;100857.88;5037807;28;1454;-34
2022/09/19 13:42:53;;;;;;;;;;;;;;;25.64;nan;100855.22;5073719;28;1070;-33
2022/09/19 13:45:39;;;;;;;;;;;;;;;25.64;nan;100861.41;5079012;28;1930;-31
2022/09/19 13:48:28;;;;;;;;;;;;;;;25.65;nan;100855.09;5029297;28;1010;-38
2022/09/19 13:51:10;;;;;;;;;;;;;;;25.66;nan;100855.94;5061837;28;1343;-35
2022/09/19 13:53:43;;;;;;;;;;;;;;;25.66;nan;100847.94;5042364;28;1306;-39